createdAt,value
2019-03-30T00:00:03.020Z,52.71
2019-03-30T00:02:31.690Z,52.94
2019-03-30T00:05:00.372Z,52.93
2019-03-30T00:07:29.135Z,52.78
2019-03-30T00:09:57.817Z,51.57
2019-03-30T00:12:26.498Z,52.51
2019-03-30T00:14:55.185Z,52.85
2019-03-30T00:17:23.845Z,53.28
2019-03-30T00:19:52.528Z,52.30
2019-03-30T00:22:21.215Z,52.33
2019-03-30T00:24:49.898Z,51.87
2019-03-30T00:27:18.562Z,51.86
2019-03-30T00:29:47.259Z,53.33
2019-03-30T00:32:15.918Z,52.44
2019-03-30T00:34:44.619Z,51.46
2019-03-30T00:37:13.300Z,51.91
2019-03-30T00:39:41.988Z,51.11
2019-03-30T00:42:10.670Z,51.14
2019-03-30T00:44:39.346Z,51.90
2019-03-30T00:47:08.028Z,52.49
2019-03-30T00:49:48.558Z,52.92
2019-03-30T00:52:07.140Z,53.33
2019-03-30T00:54:35.819Z,53.50
2019-03-30T00:57:04.503Z,53.47
2019-03-30T00:59:33.189Z,53.85
2019-03-30T01:02:01.879Z,53.90
2019-03-30T01:04:30.572Z,54.22
2019-03-30T01:06:59.246Z,55.07
2019-03-30T01:09:27.936Z,54.33
2019-03-30T01:11:56.616Z,55.20
2019-03-30T01:14:25.304Z,54.98
2019-03-30T01:16:53.975Z,54.80
2019-03-30T01:19:22.652Z,54.87
2019-03-30T01:21:51.331Z,54.94
2019-03-30T01:24:20.020Z,54.87
2019-03-30T01:26:48.744Z,54.78
2019-03-30T01:29:17.416Z,54.83
2019-03-30T01:31:46.098Z,54.62
2019-03-30T01:34:14.785Z,55.21
2019-03-30T01:36:43.470Z,54.45
2019-03-30T01:39:12.198Z,53.76
2019-03-30T01:41:40.891Z,54.31
2019-03-30T01:44:09.559Z,54.17
2019-03-30T01:46:38.225Z,54.33
2019-03-30T01:49:06.901Z,55.03
2019-03-30T01:51:35.576Z,55.40
2019-03-30T01:54:04.356Z,55.13
2019-03-30T01:56:33.039Z,55.19
2019-03-30T01:59:01.727Z,55.22
2019-03-30T02:01:30.404Z,55.97
2019-03-30T02:03:59.110Z,56.35
2019-03-30T02:06:27.758Z,57.07
2019-03-30T02:08:56.427Z,57.61
2019-03-30T02:11:25.117Z,56.80
2019-03-30T02:13:53.802Z,56.51
2019-03-30T02:16:22.490Z,57.40
2019-03-30T02:18:51.149Z,56.44
2019-03-30T02:21:19.834Z,56.10
2019-03-30T02:23:48.514Z,57.55
2019-03-30T02:26:17.206Z,57.21
2019-03-30T02:28:45.887Z,57.05
2019-03-30T02:31:14.577Z,57.18
2019-03-30T02:33:43.281Z,57.82
2019-03-30T02:36:11.946Z,59.29
2019-03-30T02:38:40.631Z,57.62
2019-03-30T02:41:09.323Z,57.95
2019-03-30T02:43:38.016Z,58.36
2019-03-30T02:46:06.690Z,58.73
2019-03-30T02:48:35.410Z,59.01
2019-03-30T02:51:04.169Z,59.52
2019-03-30T02:53:32.829Z,59.81
2019-03-30T02:56:01.519Z,60.56
2019-03-30T02:58:30.208Z,59.68
2019-03-30T03:00:58.889Z,59.41
2019-03-30T03:03:27.582Z,59.61
2019-03-30T03:05:56.269Z,59.38
2019-03-30T03:08:24.939Z,59.14
2019-03-30T03:10:53.636Z,59.29
2019-03-30T03:13:22.316Z,59.41
2019-03-30T03:15:51.004Z,60.54
2019-03-30T03:18:19.688Z,61.67
2019-03-30T03:21:06.087Z,61.53
2019-03-30T03:23:18.821Z,61.86
2019-03-30T03:25:47.516Z,62.03
2019-03-30T03:28:16.159Z,62.37
2019-03-30T03:30:44.858Z,63.05
2019-03-30T03:33:13.515Z,63.38
2019-03-30T03:35:42.201Z,62.44
2019-03-30T03:38:10.888Z,62.52
2019-03-30T03:40:39.573Z,63.76
2019-03-30T03:43:08.246Z,64.23
2019-03-30T03:45:36.919Z,63.42
2019-03-30T03:48:06.398Z,62.82
2019-03-30T03:50:45.375Z,62.28
2019-03-30T03:53:15.738Z,62.24
2019-03-30T03:55:45.152Z,61.55
2019-03-30T03:58:15.659Z,62.04
2019-03-30T04:00:45.319Z,62.34
2019-03-30T04:03:17.304Z,62.93
2019-03-30T04:05:47.087Z,63.31
2019-03-30T04:08:16.284Z,63.15
2019-03-30T04:10:47.152Z,61.63
2019-03-30T04:13:15.958Z,61.38
2019-03-30T04:15:44.590Z,60.94
2019-03-30T04:18:13.375Z,60.66
2019-03-30T04:20:42.050Z,60.89
2019-03-30T04:23:10.755Z,61.00
2019-03-30T04:25:39.433Z,61.23
2019-03-30T04:28:08.123Z,61.44
2019-03-30T04:30:36.804Z,61.22
2019-03-30T04:33:06.832Z,61.12
2019-03-30T04:35:37.644Z,61.24
2019-03-30T04:38:06.355Z,61.46
2019-03-30T04:40:35.015Z,60.65
2019-03-30T04:43:03.684Z,60.57
2019-03-30T04:45:32.368Z,60.84
2019-03-30T04:48:01.092Z,60.76
2019-03-30T04:50:29.812Z,60.51
2019-03-30T04:52:58.474Z,60.15
2019-03-30T04:55:27.165Z,60.29
2019-03-30T04:57:57.757Z,60.25
2019-03-30T05:00:26.282Z,59.83
2019-03-30T05:02:54.957Z,59.58
2019-03-30T05:05:23.667Z,59.47
2019-03-30T05:07:52.346Z,58.87
2019-03-30T05:10:21.021Z,58.58
2019-03-30T05:12:49.709Z,58.68
2019-03-30T05:15:18.388Z,57.20
2019-03-30T05:17:48.157Z,56.21
2019-03-30T05:20:16.915Z,55.38
2019-03-30T05:22:45.582Z,54.51
2019-03-30T05:25:14.271Z,53.59
2019-03-30T05:27:42.944Z,52.99
2019-03-30T05:30:12.128Z,52.69
2019-03-30T05:32:41.774Z,52.53
2019-03-30T05:35:11.121Z,52.83
2019-03-30T05:37:39.782Z,52.46
2019-03-30T05:40:08.957Z,51.93
2019-03-30T05:42:37.625Z,51.50
2019-03-30T05:45:07.866Z,51.63
2019-03-30T05:47:36.573Z,51.59
2019-03-30T05:50:06.701Z,50.86
2019-03-30T05:52:35.733Z,50.18
2019-03-30T05:55:05.431Z,49.81
2019-03-30T05:57:34.126Z,48.22
2019-03-30T06:00:02.825Z,47.80
2019-03-30T06:02:31.536Z,45.33
2019-03-30T06:05:03.066Z,44.28
2019-03-30T06:07:30.586Z,43.13
2019-03-30T06:09:59.248Z,42.42
2019-03-30T06:12:27.936Z,41.34
2019-03-30T06:14:56.611Z,40.19
2019-03-30T06:17:25.291Z,39.91
2019-03-30T06:19:53.962Z,40.26
2019-03-30T06:22:22.657Z,39.14
2019-03-30T06:24:51.334Z,38.83
2019-03-30T06:27:20.029Z,37.74
2019-03-30T06:30:17.210Z,36.99
2019-03-30T06:32:46.407Z,36.72
2019-03-30T06:35:15.174Z,35.44
2019-03-30T06:37:43.869Z,34.97
2019-03-30T06:40:13.430Z,35.38
2019-03-30T06:42:42.111Z,33.61
2019-03-30T06:45:11.072Z,33.41
2019-03-30T06:47:39.794Z,32.29
2019-03-30T06:50:09.475Z,31.68
2019-03-30T06:52:41.254Z,30.45
2019-03-30T06:55:09.364Z,30.32
2019-03-30T06:57:38.103Z,30.06
2019-03-30T07:00:09.093Z,29.51
2019-03-30T07:02:38.703Z,28.66
2019-03-30T07:05:09.403Z,27.88
2019-03-30T07:07:39.178Z,27.24
2019-03-30T07:10:08.665Z,27.27
2019-03-30T07:12:40.433Z,26.50
2019-03-30T07:15:11.015Z,26.19
2019-03-30T07:17:45.371Z,26.79
2019-03-30T07:20:19.580Z,28.99
2019-03-30T07:22:51.180Z,28.31
2019-03-30T07:25:18.743Z,28.09
2019-03-30T07:27:47.427Z,29.22
2019-03-30T07:30:16.117Z,29.58
2019-03-30T07:32:44.864Z,27.24
2019-03-30T07:35:14.077Z,25.89
2019-03-30T07:37:42.808Z,25.64
2019-03-30T07:40:11.499Z,24.42
2019-03-30T07:42:40.172Z,24.75
2019-03-30T07:45:08.957Z,23.43
2019-03-30T07:47:37.637Z,23.41
2019-03-30T07:50:08.379Z,24.13
2019-03-30T07:52:37.102Z,23.91
2019-03-30T07:55:07.275Z,23.09
2019-03-30T07:57:35.966Z,27.70
2019-03-30T08:00:09.834Z,27.55
2019-03-30T08:02:38.522Z,25.89
2019-03-30T08:05:08.105Z,24.86
2019-03-30T08:07:36.789Z,22.75
2019-03-30T08:10:07.738Z,21.87
2019-03-30T08:12:36.415Z,21.29
2019-03-30T08:15:09.795Z,24.03
2019-03-30T08:17:38.459Z,22.92
2019-03-30T08:20:07.651Z,21.96
2019-03-30T08:22:36.525Z,21.39
2019-03-30T08:25:06.612Z,21.15
2019-03-30T08:27:35.299Z,21.09
2019-03-30T08:30:04.905Z,22.19
2019-03-30T08:32:33.607Z,20.79
2019-03-30T08:35:02.272Z,22.36
2019-03-30T08:37:30.970Z,21.19
2019-03-30T08:39:59.645Z,21.34
2019-03-30T08:42:28.330Z,21.23
2019-03-30T08:44:57.005Z,22.08
2019-03-30T08:47:25.684Z,21.19
2019-03-30T08:49:54.380Z,19.64
2019-03-30T08:52:23.054Z,19.48
2019-03-30T08:54:51.856Z,18.91
2019-03-30T08:57:20.715Z,19.62
2019-03-30T08:59:49.414Z,20.00
2019-03-30T09:02:18.108Z,19.63
2019-03-30T09:04:46.909Z,19.03
2019-03-30T09:07:15.597Z,20.39
2019-03-30T09:09:44.282Z,20.27
2019-03-30T09:12:12.978Z,19.74
2019-03-30T09:14:41.660Z,18.87
2019-03-30T09:17:10.374Z,17.68
2019-03-30T09:19:39.055Z,16.74
2019-03-30T09:22:07.741Z,16.59
2019-03-30T09:24:36.443Z,16.46
2019-03-30T09:27:05.146Z,16.87
2019-03-30T09:29:33.850Z,17.33
2019-03-30T09:32:13.776Z,17.70
2019-03-30T09:34:33.034Z,17.92
2019-03-30T09:37:01.771Z,17.49
2019-03-30T09:39:30.456Z,19.33
2019-03-30T09:41:59.134Z,20.90
2019-03-30T09:44:27.824Z,20.06
2019-03-30T09:46:56.547Z,18.33
2019-03-30T09:49:25.241Z,18.78
2019-03-30T09:51:53.915Z,18.28
2019-03-30T09:54:23.911Z,17.07
2019-03-30T09:56:52.774Z,16.41
2019-03-30T09:59:21.450Z,17.31
2019-03-30T10:01:50.140Z,18.13
2019-03-30T10:04:18.812Z,17.22
2019-03-30T10:06:47.480Z,17.92
2019-03-30T10:09:16.161Z,17.83
2019-03-30T10:11:44.847Z,17.13
2019-03-30T10:14:13.514Z,16.43
2019-03-30T10:16:42.191Z,16.45
2019-03-30T10:19:10.947Z,15.58
2019-03-30T10:21:39.629Z,16.18
2019-03-30T10:24:08.355Z,15.84
2019-03-30T10:26:37.030Z,15.21
2019-03-30T10:29:05.714Z,15.69
2019-03-30T10:31:34.383Z,15.56
2019-03-30T10:34:03.063Z,15.30
2019-03-30T10:36:31.745Z,14.71
2019-03-30T10:39:00.414Z,14.87
2019-03-30T10:41:29.099Z,15.27
2019-03-30T10:43:57.798Z,14.79
2019-03-30T10:46:26.607Z,17.35
2019-03-30T10:48:55.375Z,16.15
2019-03-30T10:51:24.069Z,15.01
2019-03-30T10:53:52.732Z,14.00
2019-03-30T10:56:21.415Z,14.86
2019-03-30T10:58:50.109Z,15.70
2019-03-30T11:01:18.792Z,14.59
2019-03-30T11:03:47.476Z,14.94
2019-03-30T11:06:16.165Z,15.99
2019-03-30T11:08:44.865Z,15.62
2019-03-30T11:11:14.463Z,16.07
2019-03-30T11:13:43.147Z,15.36
2019-03-30T11:16:11.818Z,14.76
2019-03-30T11:18:40.526Z,13.99
2019-03-30T11:21:09.269Z,14.19
2019-03-30T11:23:37.883Z,14.25
2019-03-30T11:26:06.585Z,14.54
2019-03-30T11:28:35.264Z,15.99
2019-03-30T11:31:05.560Z,15.02
2019-03-30T11:33:34.398Z,14.82
2019-03-30T11:36:03.118Z,14.76
2019-03-30T11:38:31.779Z,14.64
2019-03-30T11:41:00.467Z,13.76
2019-03-30T11:43:29.129Z,14.71
2019-03-30T11:45:57.837Z,14.33
2019-03-30T11:48:26.537Z,14.90
2019-03-30T11:50:55.246Z,14.22
2019-03-30T11:53:23.934Z,15.58
2019-03-30T11:55:52.629Z,15.96
2019-03-30T11:58:21.315Z,15.83
2019-03-30T12:00:50.024Z,14.65
2019-03-30T12:03:18.716Z,15.34
2019-03-30T12:05:47.376Z,14.45
2019-03-30T12:08:16.067Z,14.61
2019-03-30T12:10:44.749Z,13.98
2019-03-30T12:13:13.446Z,14.77
2019-03-30T12:15:42.135Z,15.85
2019-03-30T12:18:10.815Z,15.62
2019-03-30T12:20:39.486Z,14.29
2019-03-30T12:23:08.231Z,14.23
2019-03-30T12:25:36.897Z,13.64
2019-03-30T12:28:05.588Z,13.86
2019-03-30T12:30:34.258Z,14.20
2019-03-30T12:33:02.985Z,13.58
2019-03-30T12:35:31.656Z,14.25
2019-03-30T12:38:00.373Z,13.94
2019-03-30T12:40:29.051Z,13.84
2019-03-30T12:42:57.736Z,14.00
2019-03-30T12:45:27.011Z,15.08
2019-03-30T12:47:55.697Z,14.52
2019-03-30T12:50:24.493Z,14.58
2019-03-30T12:52:53.168Z,14.71
2019-03-30T12:55:21.878Z,15.12
2019-03-30T12:57:50.563Z,14.86
2019-03-30T13:00:19.395Z,14.35
2019-03-30T13:02:48.086Z,14.45
2019-03-30T13:05:16.820Z,14.42
2019-03-30T13:07:45.516Z,14.05
2019-03-30T13:10:14.297Z,13.89
2019-03-30T13:12:42.987Z,13.47
2019-03-30T13:15:12.677Z,13.71
2019-03-30T13:17:41.359Z,15.81
2019-03-30T13:20:10.169Z,17.20
2019-03-30T13:22:38.838Z,15.89
2019-03-30T13:25:07.658Z,15.35
2019-03-30T13:27:36.353Z,15.49
2019-03-30T13:30:07.712Z,15.64
2019-03-30T13:32:36.390Z,15.49
2019-03-30T13:35:05.155Z,17.50
2019-03-30T13:37:34.033Z,17.34
2019-03-30T13:40:02.737Z,17.13
2019-03-30T13:42:31.418Z,16.76
2019-03-30T13:45:03.163Z,16.64
2019-03-30T13:47:30.539Z,15.95
2019-03-30T13:49:59.235Z,16.06
2019-03-30T13:52:27.955Z,16.39
2019-03-30T13:54:56.642Z,16.56
2019-03-30T13:57:25.327Z,16.20
2019-03-30T13:59:54.009Z,17.39
2019-03-30T14:02:22.806Z,18.20
2019-03-30T14:04:52.557Z,17.24
2019-03-30T14:07:21.622Z,18.17
2019-03-30T14:09:50.295Z,18.88
2019-03-30T14:12:18.997Z,19.12
2019-03-30T14:14:47.672Z,20.54
2019-03-30T14:17:19.871Z,20.78
2019-03-30T14:19:46.797Z,20.07
2019-03-30T14:22:15.518Z,18.88
2019-03-30T14:24:44.211Z,20.74
2019-03-30T14:27:12.863Z,20.66
2019-03-30T14:29:41.631Z,19.98
2019-03-30T14:32:10.314Z,19.62
2019-03-30T14:34:39.014Z,20.06
2019-03-30T14:37:07.700Z,20.03
2019-03-30T14:39:36.375Z,19.92
2019-03-30T14:42:05.281Z,20.55
2019-03-30T14:44:33.947Z,19.96
2019-03-30T14:47:02.624Z,20.23
2019-03-30T14:49:31.369Z,20.57
2019-03-30T14:52:00.067Z,21.38
2019-03-30T14:54:28.831Z,21.31
2019-03-30T14:57:00.542Z,21.17
2019-03-30T14:59:29.248Z,22.33
2019-03-30T15:01:57.959Z,22.61
2019-03-30T15:04:26.644Z,22.66
2019-03-30T15:06:55.327Z,22.20
2019-03-30T15:09:23.995Z,22.36
2019-03-30T15:11:52.734Z,23.32
2019-03-30T15:14:21.442Z,24.50
2019-03-30T15:16:50.133Z,24.55
2019-03-30T15:19:18.819Z,24.83
2019-03-30T15:21:47.507Z,25.03
2019-03-30T15:24:16.195Z,26.90
2019-03-30T15:26:53.893Z,28.62
2019-03-30T15:29:15.279Z,30.13
2019-03-30T15:31:43.963Z,30.88
2019-03-30T15:34:12.660Z,31.81
2019-03-30T15:36:41.442Z,32.39
2019-03-30T15:39:10.121Z,32.66
2019-03-30T15:41:38.918Z,33.18
2019-03-30T15:44:07.699Z,33.73
2019-03-30T15:46:36.383Z,33.92
2019-03-30T15:49:05.073Z,34.17
2019-03-30T15:51:33.767Z,34.67
2019-03-30T15:54:02.464Z,35.24
2019-03-30T15:56:31.198Z,35.55
2019-03-30T15:58:59.885Z,35.79
2019-03-30T16:01:28.568Z,35.93
2019-03-30T16:03:57.246Z,36.42
2019-03-30T16:06:25.943Z,36.42
2019-03-30T16:08:54.628Z,36.50
2019-03-30T16:11:23.353Z,36.96
2019-03-30T16:13:52.018Z,36.68
2019-03-30T16:16:20.723Z,37.06
2019-03-30T16:18:49.430Z,36.89
2019-03-30T16:21:18.104Z,37.04
2019-03-30T16:23:46.805Z,37.36
2019-03-30T16:26:15.661Z,37.44
2019-03-30T16:28:44.393Z,37.58
2019-03-30T16:31:13.067Z,37.93
2019-03-30T16:33:41.783Z,38.08
2019-03-30T16:36:10.469Z,38.32
2019-03-30T16:38:39.144Z,38.57
2019-03-30T16:41:07.832Z,38.67
2019-03-30T16:43:36.565Z,38.87
2019-03-30T16:46:05.347Z,39.31
2019-03-30T16:48:34.114Z,39.19
2019-03-30T16:51:02.779Z,39.32
2019-03-30T16:53:31.457Z,39.34
2019-03-30T16:56:00.161Z,39.64
2019-03-30T16:58:29.257Z,39.87
2019-03-30T17:00:57.962Z,40.04
2019-03-30T17:03:26.808Z,40.26
2019-03-30T17:05:55.558Z,40.64
2019-03-30T17:08:24.230Z,41.02
2019-03-30T17:10:52.917Z,41.07
2019-03-30T17:13:21.599Z,41.11
2019-03-30T17:15:50.305Z,41.17
2019-03-30T17:18:18.999Z,41.38
2019-03-30T17:20:47.696Z,41.78
2019-03-30T17:23:16.514Z,42.22
2019-03-30T17:25:45.196Z,42.60
2019-03-30T17:28:13.882Z,42.44
2019-03-30T17:30:42.599Z,42.31
2019-03-30T17:33:11.273Z,41.82
2019-03-30T17:35:39.953Z,41.84
2019-03-30T17:38:08.695Z,42.65
2019-03-30T17:40:37.365Z,42.92
2019-03-30T17:43:06.044Z,42.41
2019-03-30T17:45:34.735Z,43.30
2019-03-30T17:48:03.411Z,43.19
2019-03-30T17:50:32.101Z,43.24
2019-03-30T17:53:00.794Z,43.79
2019-03-30T17:55:33.902Z,43.97
2019-03-30T17:58:12.305Z,43.48
2019-03-30T18:00:30.374Z,43.28
2019-03-30T18:02:59.064Z,43.34
2019-03-30T18:05:27.814Z,44.70
2019-03-30T18:07:56.506Z,44.44
2019-03-30T18:10:25.176Z,45.06
2019-03-30T18:12:53.849Z,44.47
2019-03-30T18:15:22.536Z,44.99
2019-03-30T18:17:51.215Z,44.98
2019-03-30T18:20:19.993Z,44.56
2019-03-30T18:22:48.674Z,44.75
2019-03-30T18:25:17.370Z,45.06
2019-03-30T18:27:46.058Z,44.90
2019-03-30T18:30:14.975Z,45.57
2019-03-30T18:32:43.855Z,45.49
2019-03-30T18:35:12.659Z,45.80
2019-03-30T18:37:42.110Z,46.17
2019-03-30T18:40:12.521Z,45.85
2019-03-30T18:42:41.180Z,45.46
2019-03-30T18:45:12.776Z,46.03
2019-03-30T18:47:41.497Z,45.99
2019-03-30T18:50:11.748Z,45.85
2019-03-30T18:52:40.510Z,45.64
2019-03-30T18:55:10.729Z,46.21
2019-03-30T18:57:39.408Z,46.57
2019-03-30T19:00:08.399Z,46.65
2019-03-30T19:02:37.119Z,46.74
2019-03-30T19:05:06.271Z,46.88
2019-03-30T19:07:34.963Z,47.26
2019-03-30T19:10:04.562Z,47.57
2019-03-30T19:12:33.266Z,48.09
2019-03-30T19:15:01.934Z,48.51
2019-03-30T19:17:30.631Z,49.06
2019-03-30T19:19:59.310Z,49.25
2019-03-30T19:22:28.010Z,49.00
2019-03-30T19:24:56.695Z,48.70
2019-03-30T19:27:25.377Z,48.61
2019-03-30T19:29:54.064Z,48.58
2019-03-30T19:32:22.764Z,48.47
2019-03-30T19:34:51.442Z,48.61
2019-03-30T19:37:20.132Z,48.91
2019-03-30T19:39:48.829Z,49.04
2019-03-30T19:42:17.518Z,49.33
2019-03-30T19:44:46.409Z,49.53
2019-03-30T19:47:15.097Z,50.23
2019-03-30T19:49:43.766Z,50.35
2019-03-30T19:52:12.461Z,50.54
2019-03-30T19:54:41.130Z,50.86
2019-03-30T19:57:09.857Z,50.94
2019-03-30T19:59:38.554Z,50.74
2019-03-30T20:02:07.222Z,50.92
2019-03-30T20:04:35.906Z,51.00
2019-03-30T20:07:04.685Z,51.27
2019-03-30T20:09:33.369Z,51.32
2019-03-30T20:12:02.147Z,51.43
2019-03-30T20:14:30.771Z,51.68
2019-03-30T20:16:59.461Z,52.21
2019-03-30T20:19:28.140Z,52.54
2019-03-30T20:21:57.411Z,52.49
2019-03-30T20:24:26.403Z,52.60
2019-03-30T20:26:55.066Z,52.23
2019-03-30T20:29:25.445Z,52.41
2019-03-30T20:32:00.968Z,52.60
2019-03-30T20:34:29.679Z,52.91
2019-03-30T20:36:58.324Z,52.99
2019-03-30T20:39:27.021Z,52.99
2019-03-30T20:41:55.812Z,52.62
2019-03-30T20:44:24.500Z,52.16
2019-03-30T20:46:53.178Z,52.37
2019-03-30T20:49:21.869Z,53.02
2019-03-30T20:51:50.655Z,52.63
2019-03-30T20:54:19.345Z,52.15
2019-03-30T20:56:48.021Z,51.49
2019-03-30T20:59:16.685Z,51.26
2019-03-30T21:01:45.368Z,51.48
2019-03-30T21:04:14.061Z,52.03
2019-03-30T21:06:42.746Z,52.11
2019-03-30T21:09:11.431Z,52.61
2019-03-30T21:11:40.120Z,53.32
2019-03-30T21:14:08.789Z,53.16
2019-03-30T21:16:37.464Z,53.44
2019-03-30T21:19:06.153Z,53.73
2019-03-30T21:21:34.817Z,53.94
2019-03-30T21:24:03.510Z,54.40
2019-03-30T21:26:32.184Z,54.35
2019-03-30T21:29:00.949Z,54.57
2019-03-30T21:31:29.615Z,54.53
2019-03-30T21:33:58.728Z,54.75
2019-03-30T21:36:27.414Z,55.23
2019-03-30T21:38:56.097Z,56.52
2019-03-30T21:41:24.766Z,55.44
2019-03-30T21:43:53.447Z,54.75
2019-03-30T21:46:22.161Z,54.95
2019-03-30T21:48:52.354Z,55.38
2019-03-30T21:51:23.835Z,55.58
2019-03-30T21:53:53.295Z,56.59
2019-03-30T21:56:22.238Z,55.91
2019-03-30T21:58:51.323Z,55.69
2019-03-30T22:01:21.378Z,55.58
2019-03-30T22:03:50.474Z,55.87
2019-03-30T22:06:20.719Z,55.71
2019-03-30T22:08:51.392Z,55.85
2019-03-30T22:11:20.392Z,56.15
2019-03-30T22:13:49.767Z,56.59
2019-03-30T22:16:18.778Z,56.73
2019-03-30T22:18:47.991Z,56.95
2019-03-30T22:21:19.461Z,57.23
2019-03-30T22:23:48.669Z,57.62
2019-03-30T22:26:17.789Z,59.00
2019-03-30T22:28:48.475Z,58.40
2019-03-30T22:31:18.944Z,58.12
2019-03-30T22:33:50.636Z,58.13
2019-03-30T22:36:19.410Z,58.06
2019-03-30T22:38:48.217Z,57.58
2019-03-30T22:41:17.013Z,57.48
2019-03-30T22:43:50.179Z,57.13
2019-03-30T22:46:19.173Z,56.89
2019-03-30T22:48:47.862Z,56.87
2019-03-30T22:51:16.875Z,56.66
2019-03-30T22:53:45.851Z,56.37
2019-03-30T22:56:14.801Z,56.35
2019-03-30T22:58:43.786Z,56.77
2019-03-30T23:01:14.500Z,57.13
2019-03-30T23:03:43.587Z,58.29
2019-03-30T23:06:12.401Z,57.53
2019-03-30T23:08:41.404Z,57.59
2019-03-30T23:11:10.411Z,57.36
2019-03-30T23:13:39.244Z,56.87
2019-03-30T23:16:08.429Z,56.70
2019-03-30T23:18:37.522Z,56.75
2019-03-30T23:21:06.610Z,57.72
2019-03-30T23:23:35.287Z,57.06
2019-03-30T23:26:03.981Z,56.85
2019-03-30T23:28:32.664Z,56.82
2019-03-30T23:31:01.340Z,57.35
2019-03-30T23:33:30.034Z,57.56
2019-03-30T23:35:58.705Z,57.50
2019-03-30T23:38:27.375Z,57.49
2019-03-30T23:40:56.066Z,57.58
2019-03-30T23:43:24.723Z,58.36
2019-03-30T23:45:53.403Z,58.20
2019-03-30T23:48:22.084Z,57.82
2019-03-30T23:50:50.869Z,58.50
2019-03-30T23:53:19.545Z,58.07
2019-03-30T23:55:48.251Z,59.02
2019-03-30T23:58:16.941Z,58.23
